Zollikon, Switzerland
Current Conditions -  °F | °C
As of 8:50 PM on Friday 19 Dec 2014 (Local Time) from LSMD Reporting Station
Rain Showers Rain Showers  
Wind Chill: 50°   Ceiling: 4300
Heat Index: 50°   Visibility: 6mi
Dew Point: 45°   Wind: 15mph
Humidity: 82%   Direction: 280°W
Pressure: 30.18"   Gusts: 32mph
Location:  47.34°N, 8.58°E
Report Text: LSMD 191950Z AUTO 28013G28KT 9999NDV -SHRA FEW034 OVC043 10/07 Q1022 RESHRA RMK WHT
Loading
Personal Weather Stations






























Interactive Weather Map New forecast layout! Learn more

10-Day Weather Forecast

Advertisements
Track Severe Weather on mobile